createdAt,value
2018-09-07T00:02:05.399Z,88.27
2018-09-07T00:04:35.172Z,89.77
2018-09-07T00:07:05.255Z,89.80
2018-09-07T00:09:35.206Z,91.24
2018-09-07T00:12:08.993Z,92.32
2018-09-07T00:14:40.284Z,92.12
2018-09-07T00:17:10.412Z,92.71
2018-09-07T00:19:40.352Z,93.43
2018-09-07T00:22:09.689Z,92.72
2018-09-07T00:24:40.739Z,92.94
2018-09-07T00:27:10.124Z,93.80
2018-09-07T00:29:39.431Z,93.50
2018-09-07T00:32:08.783Z,94.49
2018-09-07T00:34:38.209Z,92.43
2018-09-07T00:37:07.508Z,93.10
2018-09-07T00:39:36.783Z,92.60
2018-09-07T00:42:06.125Z,93.29
2018-09-07T00:44:35.437Z,93.19
2018-09-07T00:47:04.757Z,94.22
2018-09-07T00:49:34.062Z,92.90
2018-09-07T00:52:03.306Z,93.38
2018-09-07T00:54:32.558Z,93.77
2018-09-07T00:57:02.281Z,94.06
2018-09-07T00:59:33.175Z,94.78
2018-09-07T01:02:03.663Z,95.25
2018-09-07T01:04:32.983Z,95.34
2018-09-07T01:07:03.389Z,96.66
2018-09-07T01:09:32.709Z,96.42
2018-09-07T01:12:03.157Z,97.64
2018-09-07T01:14:32.745Z,96.24
2018-09-07T01:17:02.916Z,95.99
2018-09-07T01:19:32.717Z,96.86
2018-09-07T01:22:02.828Z,97.28
2018-09-07T01:24:32.988Z,97.65
2018-09-07T01:27:02.380Z,97.14
2018-09-07T01:29:32.563Z,97.17
2018-09-07T01:32:02.145Z,97.18
2018-09-07T01:34:36.709Z,97.39
2018-09-07T01:37:11.110Z,96.61
2018-09-07T01:39:40.598Z,97.70
2018-09-07T01:42:10.579Z,97.57
2018-09-07T01:44:39.803Z,97.13
2018-09-07T01:47:09.356Z,96.96
2018-09-07T01:49:38.644Z,97.74
2018-09-07T01:52:08.143Z,99.18
2018-09-07T01:54:37.564Z,98.85
2018-09-07T01:57:07.075Z,100.00
2018-09-07T01:59:36.454Z,100.00
2018-09-07T02:02:05.815Z,100.00
2018-09-07T02:04:35.148Z,100.00
2018-09-07T02:07:04.559Z,100.00
2018-09-07T02:09:34.103Z,100.00
2018-09-07T02:12:09.816Z,100.00
2018-09-07T02:14:39.279Z,100.00
2018-09-07T02:17:09.561Z,100.00
2018-09-07T02:19:40.376Z,100.00
2018-09-07T02:22:09.756Z,100.00
2018-09-07T02:24:39.083Z,100.00
2018-09-07T02:27:15.418Z,100.00
2018-09-07T02:29:44.774Z,100.00
2018-09-07T02:32:14.083Z,100.00
2018-09-07T02:34:43.856Z,100.00
2018-09-07T02:37:13.089Z,100.00
2018-09-07T02:39:42.456Z,100.00
2018-09-07T02:42:12.105Z,100.00
2018-09-07T02:44:41.463Z,100.00
2018-09-07T02:47:10.799Z,100.00
2018-09-07T02:49:40.339Z,100.00
2018-09-07T02:52:09.765Z,100.00
2018-09-07T02:54:39.026Z,100.00
2018-09-07T02:57:08.381Z,100.00
2018-09-07T02:59:39.633Z,100.00
2018-09-07T03:02:08.934Z,100.00
2018-09-07T03:04:38.221Z,100.00
2018-09-07T03:07:07.558Z,100.00
2018-09-07T03:09:36.880Z,100.00
2018-09-07T03:12:06.613Z,100.00
2018-09-07T03:14:35.851Z,100.00
2018-09-07T03:17:05.317Z,100.00
2018-09-07T03:19:34.750Z,100.00
2018-09-07T03:22:04.169Z,100.00
2018-09-07T03:24:33.549Z,100.00
2018-09-07T03:27:03.707Z,100.00
2018-09-07T03:29:33.005Z,100.00
2018-09-07T03:32:02.477Z,100.00
2018-09-07T03:34:31.877Z,100.00
2018-09-07T03:37:01.426Z,100.00
2018-09-07T03:39:30.890Z,100.00
2018-09-07T03:42:00.346Z,100.00
2018-09-07T03:44:29.906Z,100.00
2018-09-07T03:46:59.343Z,100.00
2018-09-07T03:49:28.902Z,100.00
2018-09-07T03:51:58.323Z,100.00
2018-09-07T03:54:28.041Z,100.00
2018-09-07T03:56:57.425Z,100.00
2018-09-07T03:59:26.981Z,100.00
2018-09-07T04:01:56.650Z,100.00
2018-09-07T04:04:26.114Z,100.00
2018-09-07T04:06:55.501Z,100.00
2018-09-07T04:09:25.286Z,100.00
2018-09-07T04:11:55.170Z,100.00
2018-09-07T04:14:25.292Z,100.00
2018-09-07T04:16:54.709Z,100.00
2018-09-07T04:19:24.279Z,100.00
2018-09-07T04:21:53.785Z,100.00
2018-09-07T04:24:25.398Z,100.00
2018-09-07T04:26:55.128Z,100.00
2018-09-07T04:29:24.807Z,100.00
2018-09-07T04:31:54.793Z,100.00
2018-09-07T04:34:24.333Z,100.00
2018-09-07T04:36:54.707Z,100.00
2018-09-07T04:39:25.205Z,100.00
2018-09-07T04:41:54.713Z,100.00
2018-09-07T04:44:24.716Z,100.00
2018-09-07T04:46:54.510Z,100.00
2018-09-07T04:49:24.871Z,100.00
2018-09-07T04:51:54.447Z,100.00
2018-09-07T04:54:24.003Z,100.00
2018-09-07T04:56:53.472Z,100.00
2018-09-07T04:59:23.059Z,100.00
2018-09-07T05:01:53.219Z,100.00
2018-09-07T05:04:26.160Z,100.00
2018-09-07T05:06:56.316Z,100.00
2018-09-07T05:09:26.286Z,100.00
2018-09-07T05:11:55.864Z,100.00
2018-09-07T05:14:25.550Z,100.00
2018-09-07T05:16:55.249Z,100.00
2018-09-07T05:19:24.911Z,100.00
2018-09-07T05:21:54.728Z,100.00
2018-09-07T05:24:24.341Z,100.00
2018-09-07T05:26:54.235Z,100.00
2018-09-07T05:29:24.165Z,100.00
2018-09-07T05:31:53.688Z,100.00
2018-09-07T05:34:23.126Z,100.00
2018-09-07T05:36:53.026Z,100.00
2018-09-07T05:39:22.518Z,100.00
2018-09-07T05:41:51.974Z,100.00
2018-09-07T05:44:21.511Z,100.00
2018-09-07T05:47:54.623Z,100.00
2018-09-07T05:50:25.247Z,100.00
2018-09-07T05:52:54.939Z,100.00
2018-09-07T05:55:24.439Z,100.00
2018-09-07T05:57:54.027Z,100.00
2018-09-07T06:00:23.698Z,100.00
2018-09-07T06:02:53.478Z,100.00
2018-09-07T06:05:23.066Z,100.00
2018-09-07T06:07:52.988Z,100.00
2018-09-07T06:10:22.410Z,100.00
2018-09-07T06:12:51.906Z,100.00
2018-09-07T06:15:21.505Z,100.00
2018-09-07T06:17:51.224Z,100.00
2018-09-07T06:20:20.813Z,100.00
2018-09-07T06:22:50.374Z,100.00
2018-09-07T06:25:19.831Z,100.00
2018-09-07T06:27:49.286Z,100.00
2018-09-07T06:30:19.326Z,100.00
2018-09-07T06:32:48.948Z,100.00
2018-09-07T06:35:18.254Z,100.00
2018-09-07T06:37:47.801Z,100.00
2018-09-07T06:40:17.319Z,100.00
2018-09-07T06:42:46.891Z,100.00
2018-09-07T06:45:16.253Z,100.00
2018-09-07T06:47:45.667Z,100.00
2018-09-07T06:50:15.134Z,100.00
2018-09-07T06:52:44.536Z,100.00
2018-09-07T06:55:13.946Z,100.00
2018-09-07T06:57:43.385Z,100.00
2018-09-07T07:00:12.737Z,100.00
2018-09-07T07:02:42.245Z,100.00
2018-09-07T07:05:11.625Z,100.00
2018-09-07T07:07:41.126Z,100.00
2018-09-07T07:10:10.402Z,100.00
2018-09-07T07:12:40.482Z,100.00
2018-09-07T07:15:10.077Z,100.00
2018-09-07T07:17:39.395Z,100.00
2018-09-07T07:20:08.846Z,100.00
2018-09-07T07:22:38.629Z,100.00
2018-09-07T07:25:08.033Z,100.00
2018-09-07T07:27:37.387Z,100.00
2018-09-07T07:30:06.792Z,100.00
2018-09-07T07:32:36.110Z,98.82
2018-09-07T07:35:05.450Z,96.88
2018-09-07T07:37:34.737Z,95.84
2018-09-07T07:40:04.129Z,96.53
2018-09-07T07:42:33.513Z,95.27
2018-09-07T07:45:02.777Z,93.92
2018-09-07T07:47:32.564Z,93.92
2018-09-07T07:50:02.197Z,92.37
2018-09-07T07:52:31.741Z,92.74
2018-09-07T07:55:01.027Z,91.68
2018-09-07T07:57:30.301Z,91.51
2018-09-07T07:59:59.696Z,90.53
2018-09-07T08:02:29.250Z,90.66
2018-09-07T08:04:58.998Z,89.94
2018-09-07T08:07:28.518Z,90.71
2018-09-07T08:09:57.756Z,92.27
2018-09-07T08:12:27.085Z,91.97
2018-09-07T08:14:56.524Z,91.00
2018-09-07T08:17:25.878Z,89.31
2018-09-07T08:19:55.684Z,88.43
2018-09-07T08:22:25.035Z,89.39
2018-09-07T08:24:54.522Z,87.50
2018-09-07T08:27:24.196Z,88.03
2018-09-07T08:29:53.631Z,87.58
2018-09-07T08:32:23.342Z,88.48
2018-09-07T08:34:52.802Z,88.27
2018-09-07T08:37:22.346Z,89.97
2018-09-07T08:39:51.908Z,90.23
2018-09-07T08:42:21.594Z,91.61
2018-09-07T08:44:52.667Z,90.37
2018-09-07T08:47:22.243Z,90.05
2018-09-07T08:49:51.751Z,89.96
2018-09-07T08:52:21.181Z,88.61
2018-09-07T08:54:50.937Z,87.01
2018-09-07T08:57:21.035Z,87.45
2018-09-07T08:59:50.695Z,85.75
2018-09-07T09:02:20.425Z,85.75
2018-09-07T09:04:49.991Z,85.44
2018-09-07T09:07:19.431Z,85.46
2018-09-07T09:09:49.070Z,84.09
2018-09-07T09:12:18.565Z,83.82
2018-09-07T09:14:48.142Z,82.55
2018-09-07T09:17:17.544Z,82.91
2018-09-07T09:19:46.833Z,81.27
2018-09-07T09:22:16.594Z,81.43
2018-09-07T09:24:45.965Z,82.53
2018-09-07T09:27:15.629Z,83.67
2018-09-07T09:29:44.870Z,84.78
2018-09-07T09:32:14.299Z,86.93
2018-09-07T09:34:43.920Z,87.45
2018-09-07T09:37:13.361Z,87.52
2018-09-07T09:39:42.901Z,88.22
2018-09-07T09:42:12.224Z,87.65
2018-09-07T09:44:41.554Z,86.21
2018-09-07T09:47:10.922Z,86.99
2018-09-07T09:49:40.284Z,87.27
2018-09-07T09:52:09.590Z,85.26
2018-09-07T09:54:38.958Z,81.55
2018-09-07T09:57:08.307Z,76.96
2018-09-07T09:59:37.723Z,72.82
2018-09-07T10:02:12.333Z,70.58
2018-09-07T10:04:42.103Z,68.85
2018-09-07T10:07:11.345Z,65.46
2018-09-07T10:09:40.929Z,62.43
2018-09-07T10:12:10.326Z,62.67
2018-09-07T10:14:39.665Z,62.34
2018-09-07T10:17:09.046Z,61.80
2018-09-07T10:22:20.069Z,65.43
2018-09-07T10:24:50.601Z,65.29
2018-09-07T10:27:20.379Z,65.27
2018-09-07T10:29:49.914Z,67.51
2018-09-07T10:32:19.893Z,69.02
2018-09-07T10:34:49.592Z,67.91
2018-09-07T10:37:19.572Z,69.22
2018-09-07T10:39:49.456Z,68.67
2018-09-07T10:45:01.815Z,68.06
2018-09-07T10:47:31.101Z,65.46
2018-09-07T10:50:01.899Z,65.88
2018-09-07T10:52:31.209Z,62.61
2018-09-07T10:55:01.173Z,59.99
2018-09-07T10:57:31.673Z,53.71
2018-09-07T11:00:01.377Z,51.65
2018-09-07T11:02:31.174Z,54.23
2018-09-07T11:05:01.287Z,56.03
2018-09-07T11:07:30.713Z,53.43
2018-09-07T11:10:00.343Z,50.90
2018-09-07T11:12:30.272Z,49.65
2018-09-07T11:15:00.633Z,47.99
2018-09-07T11:17:31.203Z,46.22
2018-09-07T11:20:00.786Z,45.74
2018-09-07T11:22:30.519Z,46.00
2018-09-07T11:25:01.342Z,44.45
2018-09-07T11:27:30.671Z,43.40
2018-09-07T11:30:02.125Z,43.09
2018-09-07T11:32:33.206Z,43.49
2018-09-07T11:35:03.997Z,45.88
2018-09-07T11:37:33.899Z,50.52
2018-09-07T11:40:03.335Z,53.02
2018-09-07T11:42:32.773Z,55.61
2018-09-07T11:45:02.264Z,56.29
2018-09-07T11:47:31.989Z,58.58
2018-09-07T11:50:02.626Z,56.18
2018-09-07T11:52:32.125Z,54.96
2018-09-07T11:55:01.537Z,52.68
2018-09-07T11:57:30.939Z,51.95
2018-09-07T12:00:00.431Z,53.04
2018-09-07T12:02:30.141Z,52.12
2018-09-07T12:05:05.286Z,51.50
2018-09-07T12:07:35.099Z,48.62
2018-09-07T12:10:05.832Z,47.37
2018-09-07T12:12:35.109Z,46.37
2018-09-07T12:15:04.474Z,46.53
2018-09-07T12:17:34.873Z,44.29
2018-09-07T12:20:04.362Z,43.43
2018-09-07T12:22:34.246Z,44.41
2018-09-07T12:25:04.689Z,43.82
2018-09-07T12:27:34.022Z,41.85
2018-09-07T12:30:03.357Z,40.59
2018-09-07T12:32:33.102Z,43.52
2018-09-07T12:35:02.725Z,44.78
2018-09-07T12:37:32.740Z,46.69
2018-09-07T12:40:02.338Z,46.99
2018-09-07T12:42:31.717Z,43.77
2018-09-07T12:45:02.573Z,44.06
2018-09-07T12:47:32.093Z,45.26
2018-09-07T12:50:02.114Z,46.66
2018-09-07T12:52:31.577Z,49.78
2018-09-07T12:55:01.069Z,46.44
2018-09-07T12:57:30.446Z,47.23
2018-09-07T12:59:59.862Z,47.98
2018-09-07T13:02:29.689Z,47.05
2018-09-07T13:04:59.497Z,46.88
2018-09-07T13:07:29.080Z,45.60
2018-09-07T13:09:58.717Z,44.55
2018-09-07T13:12:28.879Z,44.86
2018-09-07T13:14:58.410Z,43.75
2018-09-07T13:17:27.778Z,42.69
2018-09-07T13:19:58.319Z,43.40
2018-09-07T13:22:27.850Z,45.33
2018-09-07T13:25:00.941Z,45.86
2018-09-07T13:27:33.132Z,47.83
2018-09-07T13:30:03.180Z,46.91
2018-09-07T13:32:32.594Z,46.04
2018-09-07T13:35:01.911Z,46.72
2018-09-07T13:40:11.918Z,47.71
2018-09-07T13:42:41.260Z,47.29
2018-09-07T13:45:11.767Z,47.10
2018-09-07T13:47:41.057Z,48.88
2018-09-07T13:50:11.145Z,49.69
2018-09-07T13:52:40.573Z,51.91
2018-09-07T13:58:00.147Z,55.71
2018-09-07T14:00:30.922Z,57.30
2018-09-07T14:03:01.339Z,60.35
2018-09-07T14:05:31.135Z,63.32
2018-09-07T14:08:05.833Z,66.47
2018-09-07T14:10:45.208Z,69.99
2018-09-07T14:13:18.458Z,73.89
2018-09-07T14:15:49.227Z,76.30
2018-09-07T14:18:20.190Z,79.08
2018-09-07T14:20:50.022Z,83.76
2018-09-07T14:23:19.767Z,87.00
2018-09-07T14:25:52.294Z,90.21
2018-09-07T14:28:22.124Z,91.34
2018-09-07T14:30:52.357Z,91.98
2018-09-07T14:33:22.231Z,93.06
2018-09-07T14:35:54.354Z,94.64
2018-09-07T14:38:24.649Z,94.18
2018-09-07T14:40:54.758Z,93.92
2018-09-07T14:43:24.822Z,94.01
2018-09-07T14:45:56.854Z,93.59
2018-09-07T14:48:27.484Z,93.58
2018-09-07T14:50:57.313Z,92.58
2018-09-07T14:53:27.113Z,91.75
2018-09-07T14:56:00.343Z,92.60
2018-09-07T14:58:29.757Z,90.02
2018-09-07T15:00:59.707Z,90.16
2018-09-07T15:03:29.780Z,90.44
2018-09-07T15:05:59.549Z,90.04
2018-09-07T15:08:31.971Z,90.18
2018-09-07T15:11:01.918Z,90.92
2018-09-07T15:13:35.359Z,91.58
2018-09-07T15:16:11.563Z,91.84
2018-09-07T15:18:41.068Z,92.82
2018-09-07T15:21:11.254Z,93.22
2018-09-07T15:23:41.305Z,94.10
2018-09-07T15:26:11.142Z,95.97
2018-09-07T15:28:40.478Z,96.96
2018-09-07T15:31:12.839Z,97.35
2018-09-07T15:33:43.204Z,96.90
2018-09-07T15:36:12.609Z,96.99
2018-09-07T15:38:43.310Z,97.91
2018-09-07T15:41:13.828Z,98.01
2018-09-07T15:43:43.353Z,98.48
2018-09-07T15:46:14.835Z,97.27
2018-09-07T15:48:44.402Z,96.56
2018-09-07T15:51:17.686Z,97.13
2018-09-07T15:53:55.157Z,97.27
2018-09-07T15:56:25.923Z,98.20
2018-09-07T15:58:57.690Z,98.98
2018-09-07T16:01:27.898Z,100.00
2018-09-07T16:03:58.003Z,99.97
2018-09-07T16:06:34.303Z,100.00
2018-09-07T16:09:07.737Z,98.92
2018-09-07T16:11:38.692Z,98.08
2018-09-07T16:14:08.543Z,97.92
2018-09-07T16:16:39.202Z,97.99
2018-09-07T16:19:12.315Z,97.41
2018-09-07T16:21:46.621Z,97.18
2018-09-07T16:24:34.957Z,96.81
2018-09-07T16:30:11.304Z,94.59
2018-09-07T16:32:42.132Z,95.15
2018-09-07T16:35:14.622Z,94.92
2018-09-07T16:37:45.094Z,94.73
2018-09-07T16:40:15.402Z,95.58
2018-09-07T16:42:45.829Z,95.53
2018-09-07T16:45:15.694Z,95.03
2018-09-07T16:47:45.180Z,95.66
2018-09-07T16:50:14.849Z,94.73
2018-09-07T16:52:44.533Z,93.13
2018-09-07T16:55:14.231Z,93.09
2018-09-07T16:57:43.669Z,92.91
2018-09-07T17:00:13.120Z,90.02
2018-09-07T17:02:42.469Z,90.33
2018-09-07T17:05:11.999Z,88.40
2018-09-07T17:07:41.424Z,86.57
2018-09-07T17:10:10.787Z,87.14
2018-09-07T17:12:40.339Z,87.29
2018-09-07T17:15:09.688Z,87.41
2018-09-07T17:17:39.365Z,88.28
2018-09-07T17:20:08.858Z,88.65
2018-09-07T17:22:38.233Z,88.51
2018-09-07T17:25:07.545Z,88.75
2018-09-07T17:27:37.015Z,88.81
2018-09-07T17:30:06.700Z,89.73
2018-09-07T17:32:36.704Z,89.87
2018-09-07T17:35:13.931Z,90.06
2018-09-07T17:37:44.939Z,89.70
2018-09-07T17:40:16.743Z,90.20
2018-09-07T17:42:55.469Z,89.13
2018-09-07T17:45:32.563Z,89.49
2018-09-07T17:48:04.129Z,89.46
2018-09-07T17:50:34.439Z,89.14
2018-09-07T17:53:20.787Z,88.86
2018-09-07T17:55:51.957Z,89.17
2018-09-07T18:00:51.387Z,89.44
2018-09-07T18:03:22.721Z,89.58
2018-09-07T18:05:54.863Z,89.66
2018-09-07T18:08:27.549Z,89.52
2018-09-07T18:10:58.031Z,90.37
2018-09-07T18:13:28.726Z,89.90
2018-09-07T18:15:58.549Z,90.12
2018-09-07T18:18:28.627Z,90.76
2018-09-07T18:21:07.311Z,90.35
2018-09-07T18:23:39.724Z,90.92
2018-09-07T18:26:12.638Z,91.28
2018-09-07T18:28:42.903Z,90.63
2018-09-07T18:31:13.589Z,92.71
2018-09-07T18:33:44.535Z,92.18
2018-09-07T18:36:23.723Z,93.86
2018-09-07T18:38:59.631Z,93.44
2018-09-07T18:41:29.746Z,92.89
2018-09-07T18:44:00.196Z,92.63
2018-09-07T18:49:17.649Z,92.62
2018-09-07T18:51:47.818Z,92.67
2018-09-07T18:54:18.618Z,92.87
2018-09-07T18:56:49.054Z,92.83
2018-09-07T18:59:20.037Z,93.38
2018-09-07T19:02:01.375Z,93.18
2018-09-07T19:04:36.763Z,93.08
2018-09-07T19:07:11.149Z,93.50
2018-09-07T19:09:43.770Z,93.52
2018-09-07T19:12:14.183Z,93.46
2018-09-07T19:14:46.353Z,94.32
2018-09-07T19:17:22.207Z,96.68
2018-09-07T19:19:53.214Z,98.21
2018-09-07T19:25:09.870Z,99.61
2018-09-07T19:27:39.935Z,99.30
2018-09-07T19:30:10.618Z,99.34
2018-09-07T19:35:44.270Z,98.47
2018-09-07T19:38:30.092Z,98.22
2018-09-07T19:41:16.838Z,99.30
2018-09-07T19:43:46.731Z,99.03
2018-09-07T19:46:17.180Z,99.02
2018-09-07T19:48:46.678Z,99.69
2018-09-07T19:51:16.324Z,99.91
2018-09-07T19:53:46.152Z,99.45
2018-09-07T19:56:15.810Z,98.90
2018-09-07T19:58:46.810Z,97.81
2018-09-07T20:01:16.672Z,97.99
2018-09-07T20:03:46.579Z,97.21
2018-09-07T20:06:16.508Z,97.12
2018-09-07T20:08:47.582Z,96.55
2018-09-07T20:11:18.216Z,96.71
2018-09-07T20:13:48.745Z,96.73
2018-09-07T20:16:19.821Z,96.55
2018-09-07T20:18:50.794Z,95.55
2018-09-07T20:21:21.328Z,96.22
2018-09-07T20:24:00.470Z,96.31
2018-09-07T20:26:49.538Z,96.06
2018-09-07T20:29:28.104Z,95.39
2018-09-07T20:32:05.107Z,95.24
2018-09-07T20:34:34.820Z,94.87
2018-09-07T20:37:05.387Z,94.89
2018-09-07T20:39:35.078Z,94.14
2018-09-07T20:42:04.607Z,94.25
2018-09-07T20:44:35.180Z,94.43
2018-09-07T20:47:04.638Z,94.38
2018-09-07T20:49:34.131Z,93.99
2018-09-07T20:52:03.549Z,93.48
2018-09-07T20:54:34.140Z,93.88
2018-09-07T20:57:04.576Z,93.24
2018-09-07T20:59:34.276Z,93.43
2018-09-07T21:02:05.097Z,93.87
2018-09-07T21:04:35.745Z,93.92
2018-09-07T21:07:05.774Z,94.07
2018-09-07T21:09:36.223Z,94.73
2018-09-07T21:12:06.304Z,94.31
2018-09-07T21:14:36.535Z,94.77
2018-09-07T21:19:44.865Z,94.86
2018-09-07T21:22:14.368Z,94.96
2018-09-07T21:24:44.994Z,95.26
2018-09-07T21:27:15.682Z,94.86
2018-09-07T21:29:45.129Z,95.88
2018-09-07T21:32:15.642Z,95.55
2018-09-07T21:34:45.411Z,95.06
2018-09-07T21:37:15.786Z,94.86
2018-09-07T21:39:45.436Z,95.00
2018-09-07T21:42:15.530Z,95.06
2018-09-07T21:44:47.273Z,94.49
2018-09-07T21:47:17.493Z,94.80
2018-09-07T21:49:47.023Z,93.67
2018-09-07T21:52:16.395Z,94.34
2018-09-07T21:54:46.884Z,93.58
2018-09-07T21:57:16.329Z,93.87
2018-09-07T21:59:46.097Z,94.03
2018-09-07T22:02:19.972Z,93.76
2018-09-07T22:04:50.849Z,92.88
2018-09-07T22:07:26.091Z,92.89
2018-09-07T22:09:56.052Z,92.65
2018-09-07T22:12:25.847Z,92.53
2018-09-07T22:14:55.629Z,92.21
2018-09-07T22:17:25.397Z,92.29
2018-09-07T22:19:55.158Z,92.05
2018-09-07T22:22:24.859Z,91.59
2018-09-07T22:24:55.016Z,91.52
2018-09-07T22:27:24.691Z,91.22
2018-09-07T22:29:54.808Z,91.23
2018-09-07T22:32:24.645Z,90.30
2018-09-07T22:34:54.497Z,90.60
2018-09-07T22:37:24.688Z,90.59
2018-09-07T22:39:54.550Z,90.37
2018-09-07T22:42:24.346Z,89.92
2018-09-07T22:44:54.575Z,89.66
2018-09-07T22:47:24.908Z,90.23
2018-09-07T22:49:54.651Z,89.76
2018-09-07T22:52:24.628Z,88.89
2018-09-07T22:54:54.462Z,88.93
2018-09-07T22:57:25.004Z,88.81
2018-09-07T22:59:55.412Z,89.15
2018-09-07T23:02:25.906Z,89.30
2018-09-07T23:04:55.899Z,89.50
2018-09-07T23:07:26.443Z,89.72
2018-09-07T23:09:56.702Z,90.03
2018-09-07T23:12:26.749Z,89.91
2018-09-07T23:14:56.705Z,90.33
2018-09-07T23:17:26.764Z,89.54
2018-09-07T23:19:56.782Z,89.97
2018-09-07T23:22:26.533Z,89.90
2018-09-07T23:24:56.325Z,89.94
2018-09-07T23:27:25.933Z,89.36
2018-09-07T23:29:55.927Z,89.42
2018-09-07T23:32:25.860Z,89.08
2018-09-07T23:34:55.452Z,89.87
2018-09-07T23:37:25.374Z,89.31
2018-09-07T23:39:55.429Z,89.45
2018-09-07T23:42:31.563Z,89.44
2018-09-07T23:45:00.813Z,89.91
2018-09-07T23:47:30.198Z,89.37
2018-09-07T23:49:59.665Z,89.25
2018-09-07T23:52:29.098Z,89.35
2018-09-07T23:54:58.703Z,88.51
2018-09-07T23:57:28.374Z,88.95
2018-09-07T23:59:57.933Z,89.13
